createdAt,value
2018-02-21T00:00:50.838Z,57.50
2018-02-21T00:01:50.907Z,57.50
2018-02-21T00:02:50.836Z,57.50
2018-02-21T00:03:50.910Z,57.50
2018-02-21T00:04:50.841Z,57.50
2018-02-21T00:05:50.910Z,57.50
2018-02-21T00:06:50.851Z,57.50
2018-02-21T00:07:50.956Z,53.60
2018-02-21T00:08:50.916Z,53.60
2018-02-21T00:09:50.856Z,53.60
2018-02-21T00:10:50.845Z,53.60
2018-02-21T00:11:50.895Z,53.60
2018-02-21T00:12:50.943Z,53.60
2018-02-21T00:13:50.886Z,53.60
2018-02-21T00:14:50.905Z,53.60
2018-02-21T00:15:50.895Z,53.60
2018-02-21T00:16:50.956Z,53.60
2018-02-21T00:17:50.920Z,51.30
2018-02-21T00:18:50.851Z,51.30
2018-02-21T00:19:50.922Z,51.30
2018-02-21T00:20:50.849Z,51.30
2018-02-21T00:21:50.956Z,51.30
2018-02-21T00:22:50.854Z,51.30
2018-02-21T00:23:50.850Z,51.30
2018-02-21T00:24:50.922Z,51.30
2018-02-21T00:25:50.850Z,51.30
2018-02-21T00:26:50.923Z,51.30
2018-02-21T00:27:50.862Z,53.60
2018-02-21T00:28:50.827Z,53.60
2018-02-21T00:29:50.933Z,53.60
2018-02-21T00:30:50.936Z,53.60
2018-02-21T00:31:50.877Z,53.60
2018-02-21T00:32:50.867Z,53.60
2018-02-21T00:33:50.957Z,53.60
2018-02-21T00:34:50.940Z,53.60
2018-02-21T00:35:50.903Z,53.60
2018-02-21T00:36:50.868Z,53.60
2018-02-21T00:37:50.890Z,46.90
2018-02-21T00:38:50.868Z,46.90
2018-02-21T00:39:50.943Z,46.90
2018-02-21T00:40:50.842Z,46.90
2018-02-21T00:41:50.871Z,46.90
2018-02-21T00:42:50.944Z,46.90
2018-02-21T00:43:50.873Z,46.90
2018-02-21T00:44:50.874Z,46.90
2018-02-21T00:45:50.932Z,46.90
2018-02-21T00:46:50.946Z,46.90
2018-02-21T00:47:50.959Z,53.60
2018-02-21T00:48:50.846Z,53.60
2018-02-21T00:49:50.871Z,53.60
2018-02-21T00:50:50.868Z,53.60
2018-02-21T00:51:50.880Z,53.60
2018-02-21T00:52:50.957Z,53.60
2018-02-21T00:53:50.968Z,53.60
2018-02-21T00:54:50.971Z,53.60
2018-02-21T00:55:50.883Z,53.60
2018-02-21T00:56:50.950Z,53.60
2018-02-21T00:57:50.916Z,56.70
2018-02-21T00:58:50.909Z,56.70
2018-02-21T00:59:50.922Z,56.70
2018-02-21T01:00:50.989Z,56.70
2018-02-21T01:01:50.935Z,56.70
2018-02-21T01:02:50.870Z,56.70
2018-02-21T01:03:50.972Z,56.70
2018-02-21T01:04:50.985Z,56.70
2018-02-21T01:05:50.991Z,56.70
2018-02-21T01:06:50.926Z,56.70
2018-02-21T01:07:50.979Z,49.40
2018-02-21T01:08:50.952Z,49.40
2018-02-21T01:09:50.933Z,49.40
2018-02-21T01:10:50.987Z,49.40
2018-02-21T01:11:50.882Z,49.40
2018-02-21T01:12:50.989Z,49.40
2018-02-21T01:13:50.964Z,49.40
2018-02-21T01:14:50.986Z,49.40
2018-02-21T01:15:50.878Z,49.40
2018-02-21T01:16:50.966Z,49.40
2018-02-21T01:17:50.981Z,50.30
2018-02-21T01:18:51.015Z,50.30
2018-02-21T01:19:50.993Z,50.30
2018-02-21T01:20:50.996Z,50.30
2018-02-21T01:21:50.879Z,50.30
2018-02-21T01:22:50.940Z,50.30
2018-02-21T01:23:50.938Z,50.30
2018-02-21T01:24:50.943Z,50.30
2018-02-21T01:25:50.958Z,50.30
2018-02-21T01:26:50.938Z,50.30
2018-02-21T01:27:50.946Z,52.60
2018-02-21T01:28:50.892Z,52.60
2018-02-21T01:29:50.905Z,52.60
2018-02-21T01:30:50.937Z,52.60
2018-02-21T01:31:50.995Z,52.60
2018-02-21T01:32:50.892Z,52.60
2018-02-21T01:33:51.003Z,52.60
2018-02-21T01:34:50.967Z,52.60
2018-02-21T01:35:50.932Z,52.60
2018-02-21T01:36:50.982Z,52.60
2018-02-21T01:37:50.948Z,47.30
2018-02-21T01:38:50.947Z,47.30
2018-02-21T01:39:50.954Z,47.30
2018-02-21T01:40:50.973Z,47.30
2018-02-21T01:41:50.932Z,47.30
2018-02-21T01:42:50.941Z,47.30
2018-02-21T01:43:51.003Z,47.30
2018-02-21T01:44:51.034Z,47.30
2018-02-21T01:45:50.948Z,47.30
2018-02-21T01:46:50.974Z,47.30
2018-02-21T01:47:50.966Z,49.00
2018-02-21T01:48:50.874Z,49.00
2018-02-21T01:49:50.848Z,49.00
2018-02-21T01:50:50.851Z,49.00
2018-02-21T01:51:50.877Z,49.00
2018-02-21T01:52:50.872Z,49.00
2018-02-21T01:53:50.876Z,49.00
2018-02-21T01:54:50.878Z,49.00
2018-02-21T01:55:50.961Z,49.00
2018-02-21T01:56:50.874Z,49.00
2018-02-21T01:57:50.949Z,49.00
2018-02-21T01:58:50.982Z,54.30
2018-02-21T01:59:50.923Z,54.30
2018-02-21T02:00:51.011Z,54.30
2018-02-21T02:01:50.986Z,54.30
2018-02-21T02:02:50.948Z,54.30
2018-02-21T02:03:51.028Z,54.30
2018-02-21T02:04:51.020Z,54.30
2018-02-21T02:05:50.957Z,54.30
2018-02-21T02:06:50.993Z,54.30
2018-02-21T02:07:50.918Z,54.30
2018-02-21T02:08:50.924Z,62.70
2018-02-21T02:09:50.939Z,62.70
2018-02-21T02:10:50.925Z,62.70
2018-02-21T02:11:51.000Z,62.70
2018-02-21T02:12:50.941Z,62.70
2018-02-21T02:13:50.925Z,62.70
2018-02-21T02:14:51.002Z,62.70
2018-02-21T02:15:50.926Z,62.70
2018-02-21T02:16:51.008Z,62.70
2018-02-21T02:17:50.928Z,62.70
2018-02-21T02:18:51.004Z,55.70
2018-02-21T02:19:50.920Z,55.70
2018-02-21T02:20:50.918Z,55.70
2018-02-21T02:21:50.922Z,55.70
2018-02-21T02:22:51.060Z,55.70
2018-02-21T02:23:50.919Z,55.70
2018-02-21T02:24:51.005Z,55.70
2018-02-21T02:25:50.924Z,55.70
2018-02-21T02:26:51.026Z,55.70
2018-02-21T02:27:51.035Z,55.70
2018-02-21T02:28:50.938Z,61.00
2018-02-21T02:29:50.876Z,61.00
2018-02-21T02:30:50.961Z,61.00
2018-02-21T02:31:50.872Z,61.00
2018-02-21T02:32:50.904Z,61.00
2018-02-21T02:33:50.986Z,61.00
2018-02-21T02:34:50.965Z,61.00
2018-02-21T02:35:50.874Z,61.00
2018-02-21T02:36:50.930Z,61.00
2018-02-21T02:37:50.946Z,61.00
2018-02-21T02:38:51.014Z,54.50
2018-02-21T02:39:50.938Z,54.50
2018-02-21T02:40:51.003Z,54.50
2018-02-21T02:41:50.931Z,54.50
2018-02-21T02:42:51.006Z,54.50
2018-02-21T02:43:50.934Z,54.50
2018-02-21T02:44:51.004Z,54.50
2018-02-21T02:45:50.934Z,54.50
2018-02-21T02:46:50.940Z,54.50
2018-02-21T02:47:51.006Z,54.50
2018-02-21T02:48:51.034Z,65.60
2018-02-21T02:49:50.948Z,65.60
2018-02-21T02:50:50.914Z,65.60
2018-02-21T02:51:51.036Z,65.60
2018-02-21T02:52:51.028Z,65.60
2018-02-21T02:53:50.950Z,65.60
2018-02-21T02:54:50.972Z,65.60
2018-02-21T02:55:50.952Z,65.60
2018-02-21T02:56:51.029Z,65.60
2018-02-21T02:57:51.040Z,65.60
2018-02-21T02:58:51.022Z,59.60
2018-02-21T02:59:50.945Z,59.60
2018-02-21T03:00:51.025Z,59.60
2018-02-21T03:01:51.019Z,59.60
2018-02-21T03:02:50.964Z,59.60
2018-02-21T03:03:50.946Z,59.60
2018-02-21T03:04:51.030Z,59.60
2018-02-21T03:05:51.055Z,59.60
2018-02-21T03:06:51.084Z,59.60
2018-02-21T03:07:51.058Z,59.60
2018-02-21T03:08:50.968Z,58.20
2018-02-21T03:09:50.991Z,58.20
2018-02-21T03:10:51.024Z,58.20
2018-02-21T03:11:51.061Z,58.20
2018-02-21T03:12:51.026Z,58.20
2018-02-21T03:13:50.998Z,58.20
2018-02-21T03:14:51.005Z,58.20
2018-02-21T03:15:50.970Z,58.20
2018-02-21T03:16:51.006Z,58.20
2018-02-21T03:17:50.956Z,58.20
2018-02-21T03:18:51.025Z,64.50
2018-02-21T03:19:50.954Z,64.50
2018-02-21T03:20:51.027Z,64.50
2018-02-21T03:21:50.955Z,64.50
2018-02-21T03:22:51.028Z,64.50
2018-02-21T03:23:50.956Z,64.50
2018-02-21T03:24:51.035Z,64.50
2018-02-21T03:25:50.964Z,64.50
2018-02-21T03:26:51.036Z,64.50
2018-02-21T03:27:50.960Z,64.50
2018-02-21T03:28:51.049Z,56.99
2018-02-21T03:29:51.045Z,56.99
2018-02-21T03:30:51.048Z,56.99
2018-02-21T03:31:51.002Z,56.99
2018-02-21T03:32:50.971Z,56.99
2018-02-21T03:33:51.048Z,56.99
2018-02-21T03:34:51.038Z,56.99
2018-02-21T03:35:50.975Z,56.99
2018-02-21T03:36:51.054Z,56.99
2018-02-21T03:37:51.048Z,56.99
2018-02-21T03:38:50.978Z,55.50
2018-02-21T03:39:51.042Z,55.50
2018-02-21T03:40:51.048Z,55.50
2018-02-21T03:41:50.948Z,55.50
2018-02-21T03:42:51.109Z,55.50
2018-02-21T03:43:51.014Z,55.50
2018-02-21T03:44:51.050Z,55.50
2018-02-21T03:45:51.074Z,55.50
2018-02-21T03:46:51.028Z,55.50
2018-02-21T03:47:51.081Z,55.50
2018-02-21T03:48:51.060Z,51.60
2018-02-21T03:49:51.059Z,51.60
2018-02-21T03:50:50.984Z,51.60
2018-02-21T03:51:51.059Z,51.60
2018-02-21T03:52:51.062Z,51.60
2018-02-21T03:53:50.986Z,51.60
2018-02-21T03:54:50.982Z,51.60
2018-02-21T03:55:50.990Z,51.60
2018-02-21T03:56:51.061Z,51.60
2018-02-21T03:57:50.993Z,51.60
2018-02-21T03:58:50.943Z,0.00
2018-02-21T03:59:50.840Z,0.00
2018-02-21T04:00:50.945Z,0.00
2018-02-21T04:01:50.851Z,0.00
2018-02-21T04:02:50.998Z,0.00
2018-02-21T04:03:50.845Z,0.00
2018-02-21T04:04:50.851Z,0.00
2018-02-21T04:05:50.945Z,0.00
2018-02-21T04:06:50.916Z,0.00
2018-02-21T04:07:51.011Z,0.00
2018-02-21T04:08:51.071Z,59.30
2018-02-21T04:09:51.119Z,59.30
2018-02-21T04:10:51.061Z,59.30
2018-02-21T04:11:51.096Z,59.30
2018-02-21T04:12:51.097Z,59.30
2018-02-21T04:13:51.039Z,59.30
2018-02-21T04:14:50.984Z,59.30
2018-02-21T04:15:51.099Z,59.30
2018-02-21T04:16:51.072Z,59.30
2018-02-21T04:17:51.032Z,59.30
2018-02-21T04:18:51.062Z,55.10
2018-02-21T04:19:50.989Z,55.10
2018-02-21T04:20:51.064Z,55.10
2018-02-21T04:21:50.989Z,55.10
2018-02-21T04:22:51.066Z,55.10
2018-02-21T04:23:51.019Z,55.10
2018-02-21T04:24:51.065Z,55.10
2018-02-21T04:25:50.995Z,55.10
2018-02-21T04:26:51.067Z,55.10
2018-02-21T04:27:50.995Z,55.10
2018-02-21T04:28:51.039Z,57.90
2018-02-21T04:29:51.167Z,57.90
2018-02-21T04:30:50.993Z,57.90
2018-02-21T04:31:51.103Z,57.90
2018-02-21T04:32:50.990Z,57.90
2018-02-21T04:33:51.112Z,57.90
2018-02-21T04:34:51.112Z,57.90
2018-02-21T04:35:51.113Z,57.90
2018-02-21T04:36:51.006Z,57.90
2018-02-21T04:37:51.118Z,57.90
2018-02-21T04:38:51.085Z,59.70
2018-02-21T04:39:50.987Z,59.70
2018-02-21T04:40:51.109Z,59.70
2018-02-21T04:41:51.007Z,59.70
2018-02-21T04:42:51.116Z,59.70
2018-02-21T04:43:51.021Z,59.70
2018-02-21T04:44:51.108Z,59.70
2018-02-21T04:45:51.106Z,59.70
2018-02-21T04:46:51.006Z,59.70
2018-02-21T04:47:51.087Z,59.70
2018-02-21T04:48:51.086Z,56.90
2018-02-21T04:49:51.023Z,56.90
2018-02-21T04:50:51.110Z,56.90
2018-02-21T04:51:51.098Z,56.90
2018-02-21T04:52:51.116Z,56.90
2018-02-21T04:53:51.087Z,56.90
2018-02-21T04:54:51.152Z,56.90
2018-02-21T04:55:51.119Z,56.90
2018-02-21T04:56:51.007Z,56.90
2018-02-21T04:57:51.030Z,56.90
2018-02-21T04:58:51.081Z,47.30
2018-02-21T04:59:51.025Z,47.30
2018-02-21T05:00:51.026Z,47.30
2018-02-21T05:01:51.028Z,47.30
2018-02-21T05:02:51.089Z,47.30
2018-02-21T05:03:51.020Z,47.30
2018-02-21T05:04:51.025Z,47.30
2018-02-21T05:05:51.090Z,47.30
2018-02-21T05:06:51.023Z,47.30
2018-02-21T05:07:51.096Z,47.30
2018-02-21T05:08:51.030Z,44.80
2018-02-21T05:09:51.073Z,44.80
2018-02-21T05:10:51.032Z,44.80
2018-02-21T05:11:51.109Z,44.80
2018-02-21T05:12:51.034Z,44.80
2018-02-21T05:13:51.118Z,44.80
2018-02-21T05:14:51.057Z,44.80
2018-02-21T05:15:51.050Z,44.80
2018-02-21T05:16:51.110Z,44.80
2018-02-21T05:17:51.111Z,44.80
2018-02-21T05:18:51.137Z,46.10
2018-02-21T05:19:51.070Z,46.10
2018-02-21T05:20:51.114Z,46.10
2018-02-21T05:21:51.079Z,46.10
2018-02-21T05:22:51.106Z,46.10
2018-02-21T05:23:51.048Z,46.10
2018-02-21T05:24:51.087Z,46.10
2018-02-21T05:25:51.172Z,46.10
2018-02-21T05:26:51.143Z,46.10
2018-02-21T05:27:51.051Z,46.10
2018-02-21T05:28:51.108Z,40.70
2018-02-21T05:29:51.149Z,40.70
2018-02-21T05:30:51.028Z,40.70
2018-02-21T05:31:51.082Z,40.70
2018-02-21T05:32:51.014Z,40.70
2018-02-21T05:33:51.113Z,40.70
2018-02-21T05:34:51.035Z,40.70
2018-02-21T05:35:51.111Z,40.70
2018-02-21T05:36:51.032Z,40.70
2018-02-21T05:37:51.121Z,40.70
2018-02-21T05:38:51.144Z,50.99
2018-02-21T05:39:51.057Z,50.99
2018-02-21T05:40:51.174Z,50.99
2018-02-21T05:41:51.042Z,50.99
2018-02-21T05:42:51.156Z,50.99
2018-02-21T05:43:51.039Z,50.99
2018-02-21T05:44:51.160Z,50.99
2018-02-21T05:45:51.147Z,50.99
2018-02-21T05:46:51.103Z,50.99
2018-02-21T05:47:51.146Z,50.99
2018-02-21T05:48:51.059Z,50.70
2018-02-21T05:49:51.124Z,50.70
2018-02-21T05:50:51.099Z,50.70
2018-02-21T05:51:51.127Z,50.70
2018-02-21T05:52:51.024Z,50.70
2018-02-21T05:53:51.103Z,50.70
2018-02-21T05:54:51.101Z,50.70
2018-02-21T05:55:51.132Z,50.70
2018-02-21T05:56:51.063Z,50.70
2018-02-21T05:57:51.126Z,50.70
2018-02-21T05:58:51.108Z,43.99
2018-02-21T05:59:51.209Z,43.99
2018-02-21T06:00:51.102Z,43.99
2018-02-21T06:01:51.149Z,43.99
2018-02-21T06:02:51.140Z,43.99
2018-02-21T06:03:51.139Z,43.99
2018-02-21T06:04:51.170Z,43.99
2018-02-21T06:05:51.158Z,43.99
2018-02-21T06:06:51.055Z,43.99
2018-02-21T06:07:51.152Z,43.99
2018-02-21T06:08:51.127Z,52.99
2018-02-21T06:09:51.129Z,52.99
2018-02-21T06:10:51.135Z,52.99
2018-02-21T06:11:51.062Z,52.99
2018-02-21T06:12:51.132Z,52.99
2018-02-21T06:13:51.070Z,52.99
2018-02-21T06:14:51.135Z,52.99
2018-02-21T06:15:51.065Z,52.99
2018-02-21T06:16:51.012Z,52.99
2018-02-21T06:17:51.065Z,52.99
2018-02-21T06:18:51.058Z,54.40
2018-02-21T06:19:51.060Z,54.40
2018-02-21T06:20:51.115Z,54.40
2018-02-21T06:21:51.120Z,54.40
2018-02-21T06:22:51.153Z,54.40
2018-02-21T06:23:51.123Z,54.40
2018-02-21T06:24:51.046Z,54.40
2018-02-21T06:25:51.121Z,54.40
2018-02-21T06:26:51.128Z,54.40
2018-02-21T06:27:51.106Z,54.40
2018-02-21T06:28:51.085Z,55.20
2018-02-21T06:29:51.187Z,55.20
2018-02-21T06:30:51.148Z,55.20
2018-02-21T06:31:51.153Z,55.20
2018-02-21T06:32:51.187Z,55.20
2018-02-21T06:33:51.130Z,55.20
2018-02-21T06:34:51.147Z,55.20
2018-02-21T06:35:51.110Z,55.20
2018-02-21T06:36:51.117Z,55.20
2018-02-21T06:37:51.125Z,55.20
2018-02-21T06:38:51.055Z,45.80
2018-02-21T06:39:51.158Z,45.80
2018-02-21T06:40:51.214Z,45.80
2018-02-21T06:41:51.093Z,45.80
2018-02-21T06:42:51.092Z,45.80
2018-02-21T06:43:51.107Z,45.80
2018-02-21T06:44:51.076Z,45.80
2018-02-21T06:45:51.126Z,45.80
2018-02-21T06:46:51.188Z,45.80
2018-02-21T06:47:51.190Z,45.80
2018-02-21T06:48:51.129Z,44.20
2018-02-21T06:49:51.154Z,44.20
2018-02-21T06:50:51.076Z,44.20
2018-02-21T06:51:51.157Z,44.20
2018-02-21T06:52:51.081Z,44.20
2018-02-21T06:53:51.186Z,44.20
2018-02-21T06:54:51.203Z,44.20
2018-02-21T06:55:51.062Z,44.20
2018-02-21T06:56:51.098Z,44.20
2018-02-21T06:57:51.187Z,44.20
2018-02-21T06:58:51.083Z,38.30
2018-02-21T06:59:51.109Z,38.30
2018-02-21T07:00:51.053Z,38.30
2018-02-21T07:01:51.119Z,38.30
2018-02-21T07:02:51.153Z,38.30
2018-02-21T07:03:51.161Z,38.30
2018-02-21T07:04:51.162Z,38.30
2018-02-21T07:05:51.111Z,38.30
2018-02-21T07:06:51.058Z,38.30
2018-02-21T07:07:51.114Z,38.30
2018-02-21T07:08:51.176Z,39.70
2018-02-21T07:09:51.104Z,39.70
2018-02-21T07:10:51.174Z,39.70
2018-02-21T07:11:51.174Z,39.70
2018-02-21T07:12:51.106Z,39.70
2018-02-21T07:13:51.177Z,39.70
2018-02-21T07:14:51.194Z,39.70
2018-02-21T07:15:51.128Z,39.70
2018-02-21T07:16:51.105Z,39.70
2018-02-21T07:17:51.178Z,39.70
2018-02-21T07:18:51.107Z,43.60
2018-02-21T07:19:51.111Z,43.60
2018-02-21T07:20:51.180Z,43.60
2018-02-21T07:21:51.110Z,43.60
2018-02-21T07:22:51.111Z,43.60
2018-02-21T07:23:51.107Z,43.60
2018-02-21T07:24:51.112Z,43.60
2018-02-21T07:25:51.186Z,43.60
2018-02-21T07:26:51.184Z,43.60
2018-02-21T07:27:51.110Z,43.60
2018-02-21T07:28:51.178Z,39.30
2018-02-21T07:29:51.183Z,39.30
2018-02-21T07:30:51.122Z,39.30
2018-02-21T07:31:51.087Z,39.30
2018-02-21T07:32:51.216Z,39.30
2018-02-21T07:33:51.108Z,39.30
2018-02-21T07:34:51.180Z,39.30
2018-02-21T07:35:51.186Z,39.30
2018-02-21T07:36:51.088Z,39.30
2018-02-21T07:37:51.185Z,39.30
2018-02-21T07:38:51.093Z,37.40
2018-02-21T07:39:51.218Z,37.40
2018-02-21T07:40:51.157Z,37.40
2018-02-21T07:41:51.188Z,37.40
2018-02-21T07:42:51.190Z,37.40
2018-02-21T07:43:51.226Z,37.40
2018-02-21T07:44:51.225Z,37.40
2018-02-21T07:45:51.130Z,37.40
2018-02-21T07:46:51.233Z,37.40
2018-02-21T07:47:51.177Z,37.40
2018-02-21T07:48:51.201Z,43.40
2018-02-21T07:49:51.195Z,43.40
2018-02-21T07:50:51.193Z,43.40
2018-02-21T07:51:51.135Z,43.40
2018-02-21T07:52:51.166Z,43.40
2018-02-21T07:53:51.199Z,43.40
2018-02-21T07:54:51.197Z,43.40
2018-02-21T07:55:51.164Z,43.40
2018-02-21T07:56:51.169Z,43.40
2018-02-21T07:57:51.236Z,43.40
2018-02-21T07:58:51.172Z,34.70
2018-02-21T07:59:51.071Z,34.70
2018-02-21T08:00:51.176Z,34.70
2018-02-21T08:01:51.192Z,34.70
2018-02-21T08:02:51.184Z,34.70
2018-02-21T08:03:51.104Z,34.70
2018-02-21T08:04:51.065Z,34.70
2018-02-21T08:05:51.098Z,34.70
2018-02-21T08:06:51.138Z,34.70
2018-02-21T08:07:51.147Z,34.70
2018-02-21T08:08:51.139Z,44.90
2018-02-21T08:09:51.203Z,44.90
2018-02-21T08:10:51.111Z,44.90
2018-02-21T08:11:51.207Z,44.90
2018-02-21T08:12:51.241Z,44.90
2018-02-21T08:13:51.224Z,44.90
2018-02-21T08:14:51.182Z,44.90
2018-02-21T08:15:51.208Z,44.90
2018-02-21T08:16:51.179Z,44.90
2018-02-21T08:17:51.112Z,44.90
2018-02-21T08:18:51.210Z,40.50
2018-02-21T08:19:51.144Z,40.50
2018-02-21T08:20:51.217Z,40.50
2018-02-21T08:21:51.183Z,40.50
2018-02-21T08:22:51.215Z,40.50
2018-02-21T08:23:51.145Z,40.50
2018-02-21T08:24:51.176Z,40.50
2018-02-21T08:25:51.217Z,40.50
2018-02-21T08:26:51.219Z,40.50
2018-02-21T08:27:51.220Z,40.50
2018-02-21T08:28:51.107Z,48.90
2018-02-21T08:29:51.183Z,48.90
2018-02-21T08:30:51.137Z,48.90
2018-02-21T08:31:51.089Z,48.90
2018-02-21T08:32:51.215Z,48.90
2018-02-21T08:33:51.165Z,48.90
2018-02-21T08:34:51.208Z,48.90
2018-02-21T08:35:51.145Z,48.90
2018-02-21T08:36:51.111Z,48.90
2018-02-21T08:37:51.181Z,48.90
2018-02-21T08:38:51.130Z,46.30
2018-02-21T08:39:51.213Z,46.30
2018-02-21T08:40:51.224Z,46.30
2018-02-21T08:41:51.129Z,46.30
2018-02-21T08:42:51.128Z,46.30
2018-02-21T08:43:51.118Z,46.30
2018-02-21T08:44:51.220Z,46.30
2018-02-21T08:45:51.219Z,46.30
2018-02-21T08:46:51.155Z,46.30
2018-02-21T08:47:51.220Z,46.30
2018-02-21T08:48:51.134Z,44.50
2018-02-21T08:49:51.190Z,44.50
2018-02-21T08:50:51.131Z,44.50
2018-02-21T08:51:51.203Z,44.50
2018-02-21T08:52:51.132Z,44.50
2018-02-21T08:53:51.269Z,44.50
2018-02-21T08:54:51.140Z,44.50
2018-02-21T08:55:51.233Z,44.50
2018-02-21T08:56:51.258Z,44.50
2018-02-21T08:57:51.138Z,44.50
2018-02-21T08:58:51.279Z,41.70
2018-02-21T08:59:51.267Z,41.70
2018-02-21T09:00:51.269Z,41.70
2018-02-21T09:01:51.236Z,41.70
2018-02-21T09:02:51.136Z,41.70
2018-02-21T09:03:51.239Z,41.70
2018-02-21T09:04:51.239Z,41.70
2018-02-21T09:05:51.260Z,41.70
2018-02-21T09:06:51.220Z,41.70
2018-02-21T09:07:51.282Z,41.70
2018-02-21T09:08:51.208Z,37.40
2018-02-21T09:09:51.351Z,37.40
2018-02-21T09:10:51.242Z,37.40
2018-02-21T09:11:51.158Z,37.40
2018-02-21T09:12:51.285Z,37.40
2018-02-21T09:13:51.268Z,37.40
2018-02-21T09:14:51.173Z,37.40
2018-02-21T09:15:51.248Z,37.40
2018-02-21T09:16:51.275Z,37.40
2018-02-21T09:17:51.249Z,37.40
2018-02-21T09:18:51.288Z,36.40
2018-02-21T09:19:51.249Z,36.40
2018-02-21T09:20:51.258Z,36.40
2018-02-21T09:21:51.213Z,36.40
2018-02-21T09:22:51.173Z,36.40
2018-02-21T09:23:51.277Z,36.40
2018-02-21T09:24:51.253Z,36.40
2018-02-21T09:25:51.172Z,36.40
2018-02-21T09:26:51.214Z,36.40
2018-02-21T09:27:51.286Z,36.40
2018-02-21T09:28:51.258Z,39.80
2018-02-21T09:30:51.261Z,39.80
2018-02-21T09:31:51.186Z,39.80
2018-02-21T09:32:51.267Z,39.80
2018-02-21T09:33:51.216Z,39.80
2018-02-21T09:34:51.303Z,39.80
2018-02-21T09:35:51.263Z,39.80
2018-02-21T09:36:51.277Z,39.80
2018-02-21T09:37:51.193Z,39.80
2018-02-21T09:38:51.261Z,39.30
2018-02-21T09:39:51.195Z,39.30
2018-02-21T09:40:51.265Z,39.30
2018-02-21T09:41:51.262Z,39.30
2018-02-21T09:42:51.268Z,39.30
2018-02-21T09:43:51.193Z,39.30
2018-02-21T09:44:51.199Z,39.30
2018-02-21T09:45:51.262Z,39.30
2018-02-21T09:46:51.202Z,39.30
2018-02-21T09:47:51.207Z,39.30
2018-02-21T09:48:51.268Z,32.30
2018-02-21T09:49:51.307Z,32.30
2018-02-21T09:50:51.273Z,32.30
2018-02-21T09:51:51.310Z,32.30
2018-02-21T09:52:51.265Z,32.30
2018-02-21T09:53:51.175Z,32.30
2018-02-21T09:54:51.265Z,32.30
2018-02-21T09:55:51.192Z,32.30
2018-02-21T09:56:51.293Z,32.30
2018-02-21T09:57:51.299Z,32.30
2018-02-21T09:58:51.237Z,35.80
2018-02-21T09:59:51.305Z,35.80
2018-02-21T10:00:51.294Z,35.80
2018-02-21T10:01:51.303Z,35.80
2018-02-21T10:02:51.240Z,35.80
2018-02-21T10:03:51.283Z,35.80
2018-02-21T10:04:51.196Z,35.80
2018-02-21T10:05:51.275Z,35.80
2018-02-21T10:06:51.277Z,35.80
2018-02-21T10:07:51.183Z,35.80
2018-02-21T10:08:51.212Z,35.80
2018-02-21T10:09:51.271Z,33.00
2018-02-21T10:10:51.265Z,33.00
2018-02-21T10:11:51.186Z,33.00
2018-02-21T10:12:51.223Z,33.00
2018-02-21T10:13:51.272Z,33.00
2018-02-21T10:14:51.273Z,33.00
2018-02-21T10:15:51.184Z,33.00
2018-02-21T10:16:51.238Z,33.00
2018-02-21T10:17:51.269Z,33.00
2018-02-21T10:18:51.170Z,33.00
2018-02-21T10:19:51.294Z,36.90
2018-02-21T10:20:51.285Z,36.90
2018-02-21T10:21:51.215Z,36.90
2018-02-21T10:22:51.223Z,36.90
2018-02-21T10:23:51.221Z,36.90
2018-02-21T10:24:51.288Z,36.90
2018-02-21T10:25:51.225Z,36.90
2018-02-21T10:26:51.218Z,36.90
2018-02-21T10:27:51.295Z,36.90
2018-02-21T10:28:51.221Z,36.90
2018-02-21T10:29:51.291Z,39.00
2018-02-21T10:30:51.223Z,39.00
2018-02-21T10:31:51.293Z,39.00
2018-02-21T10:32:51.228Z,39.00
2018-02-21T10:33:51.226Z,39.00
2018-02-21T10:34:51.302Z,39.00
2018-02-21T10:35:51.230Z,39.00
2018-02-21T10:36:51.303Z,39.00
2018-02-21T10:37:51.229Z,39.00
2018-02-21T10:38:51.293Z,39.00
2018-02-21T10:39:51.227Z,33.30
2018-02-21T10:40:51.298Z,33.30
2018-02-21T10:41:51.233Z,33.30
2018-02-21T10:42:51.184Z,33.30
2018-02-21T10:43:51.230Z,33.30
2018-02-21T10:44:51.305Z,33.30
2018-02-21T10:45:51.301Z,33.30
2018-02-21T10:46:51.243Z,33.30
2018-02-21T10:47:51.245Z,33.30
2018-02-21T10:48:51.304Z,33.30
2018-02-21T10:49:51.203Z,28.60
2018-02-21T10:50:51.276Z,28.60
2018-02-21T10:51:51.274Z,28.60
2018-02-21T10:52:51.359Z,28.60
2018-02-21T10:53:51.346Z,28.60
2018-02-21T10:54:51.337Z,28.60
2018-02-21T10:55:51.278Z,28.60
2018-02-21T10:56:51.305Z,28.60
2018-02-21T10:57:51.282Z,28.60
2018-02-21T10:58:51.248Z,28.60
2018-02-21T10:59:51.171Z,29.00
2018-02-21T11:00:51.213Z,29.00
2018-02-21T11:01:51.239Z,29.00
2018-02-21T11:02:51.182Z,29.00
2018-02-21T11:03:51.251Z,29.00
2018-02-21T11:04:51.288Z,29.00
2018-02-21T11:05:51.182Z,29.00
2018-02-21T11:06:51.205Z,29.00
2018-02-21T11:07:51.292Z,29.00
2018-02-21T11:08:51.204Z,29.00
2018-02-21T11:09:51.272Z,29.50
2018-02-21T11:10:51.312Z,29.50
2018-02-21T11:11:51.336Z,29.50
2018-02-21T11:12:51.336Z,29.50
2018-02-21T11:13:51.314Z,29.50
2018-02-21T11:14:51.327Z,29.50
2018-02-21T11:15:51.317Z,29.50
2018-02-21T11:16:51.242Z,29.50
2018-02-21T11:17:51.240Z,29.50
2018-02-21T11:18:51.318Z,29.50
2018-02-21T11:19:51.252Z,29.70
2018-02-21T11:20:51.418Z,29.70
2018-02-21T11:21:51.325Z,29.70
2018-02-21T11:22:51.254Z,29.70
2018-02-21T11:23:51.259Z,29.70
2018-02-21T11:24:51.270Z,29.70
2018-02-21T11:25:51.324Z,29.70
2018-02-21T11:26:51.268Z,29.70
2018-02-21T11:27:51.326Z,29.70
2018-02-21T11:28:51.377Z,29.70
2018-02-21T11:29:51.283Z,22.70
2018-02-21T11:30:51.310Z,22.70
2018-02-21T11:31:51.261Z,22.70
2018-02-21T11:32:51.306Z,22.70
2018-02-21T11:33:51.228Z,22.70
2018-02-21T11:34:51.310Z,22.70
2018-02-21T11:35:51.307Z,22.70
2018-02-21T11:36:51.266Z,22.70
2018-02-21T11:37:51.220Z,22.70
2018-02-21T11:38:51.225Z,22.70
2018-02-21T11:39:51.300Z,25.40
2018-02-21T11:40:51.311Z,25.40
2018-02-21T11:41:51.331Z,25.40
2018-02-21T11:42:51.352Z,25.40
2018-02-21T11:43:51.317Z,25.40
2018-02-21T11:44:51.366Z,25.40
2018-02-21T11:45:51.343Z,25.40
2018-02-21T11:46:51.260Z,25.40
2018-02-21T11:47:51.299Z,25.40
2018-02-21T11:48:51.274Z,25.40
2018-02-21T11:49:51.268Z,27.60
2018-02-21T11:50:51.375Z,27.60
2018-02-21T11:51:51.276Z,27.60
2018-02-21T11:52:51.339Z,27.60
2018-02-21T11:53:51.276Z,27.60
2018-02-21T11:54:51.273Z,27.60
2018-02-21T11:55:51.365Z,27.60
2018-02-21T11:56:51.342Z,27.60
2018-02-21T11:57:51.342Z,27.60
2018-02-21T11:58:51.277Z,27.60
2018-02-21T11:59:51.371Z,27.50
2018-02-21T12:00:51.379Z,27.50
2018-02-21T12:01:51.380Z,27.50
2018-02-21T12:02:51.265Z,27.50
2018-02-21T12:03:51.370Z,27.50
2018-02-21T12:04:51.370Z,27.50
2018-02-21T12:05:51.376Z,27.50
2018-02-21T12:06:51.343Z,27.50
2018-02-21T12:07:51.315Z,27.50
2018-02-21T12:08:51.317Z,27.50
2018-02-21T12:09:51.359Z,24.40
2018-02-21T12:10:51.389Z,24.40
2018-02-21T12:11:51.386Z,24.40
2018-02-21T12:12:51.352Z,24.40
2018-02-21T12:13:51.316Z,24.40
2018-02-21T12:14:51.395Z,24.40
2018-02-21T12:15:51.373Z,24.40
2018-02-21T12:16:51.274Z,24.40
2018-02-21T12:17:51.297Z,24.40
2018-02-21T12:18:51.254Z,24.40
2018-02-21T12:19:51.333Z,22.80
2018-02-21T12:20:51.281Z,22.80
2018-02-21T12:21:51.374Z,22.80
2018-02-21T12:22:51.392Z,22.80
2018-02-21T12:23:51.395Z,22.80
2018-02-21T12:24:51.436Z,22.80
2018-02-21T12:25:51.361Z,22.80
2018-02-21T12:26:51.389Z,22.80
2018-02-21T12:27:51.387Z,22.80
2018-02-21T12:28:51.402Z,22.80
2018-02-21T12:29:51.338Z,24.70
2018-02-21T12:30:51.384Z,24.70
2018-02-21T12:31:51.342Z,24.70
2018-02-21T12:32:51.383Z,24.70
2018-02-21T12:33:51.269Z,24.70
2018-02-21T12:34:51.373Z,24.70
2018-02-21T12:35:51.399Z,24.70
2018-02-21T12:36:51.347Z,24.70
2018-02-21T12:37:51.330Z,24.70
2018-02-21T12:38:51.273Z,24.70
2018-02-21T12:39:51.387Z,18.20
2018-02-21T12:40:51.276Z,18.20
2018-02-21T12:41:51.298Z,18.20
2018-02-21T12:42:51.343Z,18.20
2018-02-21T12:43:51.351Z,18.20
2018-02-21T12:44:51.336Z,18.20
2018-02-21T12:45:51.369Z,18.20
2018-02-21T12:46:51.416Z,18.20
2018-02-21T12:47:51.375Z,18.20
2018-02-21T12:48:51.312Z,18.20
2018-02-21T12:49:51.374Z,20.30
2018-02-21T12:50:51.416Z,20.30
2018-02-21T12:51:51.374Z,20.30
2018-02-21T12:52:51.313Z,20.30
2018-02-21T12:53:51.309Z,20.30
2018-02-21T12:54:51.358Z,20.30